SWA2641 KSAN-KLAS
Flight info
| Callsign | SWA2641 |
|---|---|
| Flight time | 0h 51m |
| Altitude | 29000 |
| Route | PADRZ2 CHKNN SEBBY YELAH MISEN RNDRZ4 |
| Aircraft | B738/M-SDE2E3FGHIRWXY/LB1 |
Departure
| Time | 2026-05-04 01:54 |
|---|---|
| Airport | San Diego International Airport (KSAN) |
Arrival
| Time | 2026-05-04 02:46 |
|---|---|
| Airport | Harry Reid International Airport (KLAS) |
| Time | Latitude | Longitude | Altitude | Speed | Heading |
|---|---|---|---|---|---|
| 2026-05-04 01:15 | 32.73426 | -117.20472 | 24 ft | 0 kts | 122° |
| 2026-05-04 01:37 | 32.73427 | -117.20474 | 22 ft | 2 kts | 122° |
| 2026-05-04 01:37 | 32.73441 | -117.20500 | 21 ft | 3 kts | 122° |
| 2026-05-04 01:37 | 32.73451 | -117.20523 | 23 ft | 4 kts | 84° |
| 2026-05-04 01:38 | 32.73440 | -117.20546 | 25 ft | 4 kts | 29° |
| 2026-05-04 01:38 | 32.73415 | -117.20557 | 22 ft | 4 kts | 8° |
| 2026-05-04 01:38 | 32.73405 | -117.20559 | 23 ft | 0 kts | 1° |
| 2026-05-04 01:40 | 32.73413 | -117.20558 | 23 ft | 3 kts | 1° |
| 2026-05-04 01:41 | 32.73459 | -117.20557 | 21 ft | 10 kts | 7° |
| 2026-05-04 01:41 | 32.73506 | -117.20519 | 18 ft | 8 kts | 48° |
| 2026-05-04 01:41 | 32.73531 | -117.20485 | 18 ft | 5 kts | 49° |
| 2026-05-04 01:41 | 32.73542 | -117.20471 | 18 ft | 0 kts | 49° |
| 2026-05-04 01:43 | 32.73550 | -117.20459 | 20 ft | 5 kts | 49° |
| 2026-05-04 01:43 | 32.73588 | -117.20396 | 19 ft | 11 kts | 71° |
| 2026-05-04 01:43 | 32.73578 | -117.20308 | 22 ft | 11 kts | 106° |
| 2026-05-04 01:43 | 32.73549 | -117.20190 | 25 ft | 19 kts | 107° |
| 2026-05-04 01:44 | 32.73511 | -117.20029 | 26 ft | 21 kts | 105° |
| 2026-05-04 01:44 | 32.73471 | -117.19867 | 28 ft | 20 kts | 106° |
| 2026-05-04 01:44 | 32.73433 | -117.19709 | 28 ft | 20 kts | 105° |
| 2026-05-04 01:44 | 32.73396 | -117.19556 | 29 ft | 19 kts | 106° |
| 2026-05-04 01:45 | 32.73359 | -117.19405 | 28 ft | 20 kts | 106° |
| 2026-05-04 01:45 | 32.73316 | -117.19226 | 25 ft | 23 kts | 106° |
| 2026-05-04 01:45 | 32.73232 | -117.18871 | 27 ft | 22 kts | 107° |
| 2026-05-04 01:46 | 32.73189 | -117.18701 | 29 ft | 21 kts | 107° |
| 2026-05-04 01:46 | 32.73148 | -117.18535 | 27 ft | 21 kts | 105° |
| 2026-05-04 01:46 | 32.73111 | -117.18373 | 28 ft | 20 kts | 105° |
| 2026-05-04 01:46 | 32.73072 | -117.18217 | 26 ft | 19 kts | 106° |
| 2026-05-04 01:47 | 32.73035 | -117.18066 | 23 ft | 19 kts | 107° |
| 2026-05-04 01:47 | 32.72999 | -117.17920 | 24 ft | 18 kts | 105° |
| 2026-05-04 01:47 | 32.72961 | -117.17779 | 21 ft | 17 kts | 108° |
| 2026-05-04 01:47 | 32.72951 | -117.17691 | 22 ft | 0 kts | 78° |
| 2026-05-04 01:52 | 32.72951 | -117.17690 | 22 ft | 0 kts | 78° |
| 2026-05-04 01:52 | 32.72960 | -117.17654 | 22 ft | 10 kts | 71° |
| 2026-05-04 01:52 | 32.73010 | -117.17611 | 24 ft | 10 kts | 347° |
| 2026-05-04 01:53 | 32.73037 | -117.17655 | 24 ft | 0 kts | 286° |
| 2026-05-04 01:54 | 32.73065 | -117.17770 | 23 ft | 46 kts | 286° |
| 2026-05-04 01:54 | 32.73222 | -117.18414 | 28 ft | 113 kts | 286° |
| 2026-05-04 01:54 | 32.73493 | -117.19512 | 111 ft | 156 kts | 286° |
| 2026-05-04 01:54 | 32.73802 | -117.20759 | 846 ft | 155 kts | 284° |
| 2026-05-04 01:55 | 32.74217 | -117.21918 | 1622 ft | 153 kts | 303° |
| 2026-05-04 01:55 | 32.74827 | -117.22935 | 2344 ft | 150 kts | 302° |
| 2026-05-04 01:55 | 32.75431 | -117.23985 | 2825 ft | 167 kts | 302° |
| 2026-05-04 01:55 | 32.76142 | -117.25221 | 3102 ft | 195 kts | 302° |
| 2026-05-04 01:56 | 32.76958 | -117.26640 | 3299 ft | 220 kts | 303° |
| 2026-05-04 01:56 | 32.77875 | -117.28239 | 3521 ft | 247 kts | 302° |
| 2026-05-04 01:56 | 32.78864 | -117.29963 | 4165 ft | 256 kts | 302° |
| 2026-05-04 01:56 | 32.79873 | -117.31720 | 4986 ft | 257 kts | 303° |
| 2026-05-04 01:57 | 32.80950 | -117.33442 | 5757 ft | 262 kts | 305° |
| 2026-05-04 01:57 | 32.82077 | -117.35177 | 6506 ft | 268 kts | 305° |
| 2026-05-04 01:57 | 32.83226 | -117.36938 | 7271 ft | 271 kts | 304° |
| 2026-05-04 01:57 | 32.84386 | -117.38720 | 8072 ft | 274 kts | 303° |
| 2026-05-04 01:58 | 32.85560 | -117.40532 | 8873 ft | 278 kts | 303° |
| 2026-05-04 01:58 | 32.86748 | -117.42370 | 9706 ft | 283 kts | 303° |
| 2026-05-04 01:58 | 32.87958 | -117.44247 | 10390 ft | 292 kts | 302° |
| 2026-05-04 01:58 | 32.89231 | -117.46231 | 10586 ft | 318 kts | 303° |
| 2026-05-04 01:59 | 32.90625 | -117.48403 | 10778 ft | 342 kts | 303° |
| 2026-05-04 01:59 | 32.92106 | -117.50706 | 11194 ft | 356 kts | 303° |
| 2026-05-04 01:59 | 32.93627 | -117.53066 | 11885 ft | 361 kts | 303° |
| 2026-05-04 01:59 | 32.95160 | -117.55449 | 12670 ft | 363 kts | 303° |
| 2026-05-04 02:00 | 32.96703 | -117.57852 | 13438 ft | 366 kts | 303° |
| 2026-05-04 02:00 | 32.98258 | -117.60278 | 14163 ft | 370 kts | 302° |
| 2026-05-04 02:00 | 32.99820 | -117.62717 | 14699 ft | 370 kts | 302° |
| 2026-05-04 02:00 | 33.01381 | -117.65155 | 14970 ft | 372 kts | 302° |
| 2026-05-04 02:01 | 33.02959 | -117.67623 | 14973 ft | 374 kts | 302° |
| 2026-05-04 02:01 | 33.04529 | -117.70076 | 14976 ft | 370 kts | 302° |
| 2026-05-04 02:01 | 33.06083 | -117.72498 | 14978 ft | 367 kts | 303° |
| 2026-05-04 02:01 | 33.07865 | -117.74701 | 14991 ft | 371 kts | 314° |
| 2026-05-04 02:02 | 33.09857 | -117.76668 | 14993 ft | 372 kts | 315° |
| 2026-05-04 02:02 | 33.11868 | -117.78619 | 14992 ft | 373 kts | 315° |
| 2026-05-04 02:02 | 33.13848 | -117.80571 | 14985 ft | 374 kts | 314° |
| 2026-05-04 02:02 | 33.15843 | -117.82577 | 14981 ft | 376 kts | 314° |
| 2026-05-04 02:03 | 33.17835 | -117.84602 | 14977 ft | 375 kts | 314° |
| 2026-05-04 02:03 | 33.19817 | -117.86621 | 14985 ft | 374 kts | 314° |
| 2026-05-04 02:03 | 33.21796 | -117.88578 | 14973 ft | 365 kts | 315° |
| 2026-05-04 02:03 | 33.23756 | -117.90482 | 14974 ft | 362 kts | 315° |
| 2026-05-04 02:04 | 33.25715 | -117.92381 | 14982 ft | 363 kts | 315° |
| 2026-05-04 02:04 | 33.27677 | -117.94287 | 15019 ft | 367 kts | 315° |
| 2026-05-04 02:04 | 33.29667 | -117.96226 | 15687 ft | 369 kts | 314° |
| 2026-05-04 02:04 | 33.31646 | -117.98153 | 16723 ft | 364 kts | 313° |
| 2026-05-04 02:05 | 33.33601 | -118.00059 | 17623 ft | 363 kts | 312° |
| 2026-05-04 02:05 | 33.35563 | -118.01979 | 18388 ft | 366 kts | 311° |
| 2026-05-04 02:05 | 33.37539 | -118.03917 | 19018 ft | 369 kts | 311° |
| 2026-05-04 02:05 | 33.39527 | -118.05868 | 19687 ft | 371 kts | 311° |
| 2026-05-04 02:06 | 33.41538 | -118.07840 | 20360 ft | 374 kts | 311° |
| 2026-05-04 02:06 | 33.43554 | -118.09818 | 21013 ft | 377 kts | 311° |
| 2026-05-04 02:06 | 33.45588 | -118.11815 | 21642 ft | 379 kts | 311° |
| 2026-05-04 02:06 | 33.47637 | -118.13827 | 22278 ft | 382 kts | 311° |
| 2026-05-04 02:07 | 33.49704 | -118.15858 | 22885 ft | 385 kts | 311° |
| 2026-05-04 02:07 | 33.49751 | -118.15904 | 22901 ft | 385 kts | 311° |
| 2026-05-04 02:07 | 33.51217 | -118.17345 | 23333 ft | 387 kts | 311° |
| 2026-05-04 02:08 | 33.53303 | -118.19396 | 23869 ft | 390 kts | 311° |
| 2026-05-04 02:08 | 33.55406 | -118.21465 | 24398 ft | 391 kts | 310° |
| 2026-05-04 02:08 | 33.57531 | -118.23511 | 24966 ft | 396 kts | 314° |
| 2026-05-04 02:08 | 33.60033 | -118.25109 | 25415 ft | 415 kts | 326° |
| 2026-05-04 02:09 | 33.62692 | -118.26492 | 25896 ft | 417 kts | 325° |
| 2026-05-04 02:09 | 33.65311 | -118.27889 | 26348 ft | 418 kts | 324° |
| 2026-05-04 02:09 | 33.67963 | -118.29344 | 26805 ft | 420 kts | 323° |
| 2026-05-04 02:09 | 33.70781 | -118.30513 | 27208 ft | 446 kts | 339° |
| 2026-05-04 02:10 | 33.73985 | -118.30569 | 27622 ft | 478 kts | 358° |
| 2026-05-04 02:10 | 33.77249 | -118.29308 | 28067 ft | 508 kts | 19° |
| 2026-05-04 02:10 | 33.80160 | -118.26757 | 28519 ft | 530 kts | 40° |
| 2026-05-04 02:10 | 33.82458 | -118.23240 | 28997 ft | 539 kts | 53° |
| 2026-05-04 02:11 | 33.86617 | -118.15607 | 28989 ft | 546 kts | 52° |
| 2026-05-04 02:11 | 33.90217 | -118.09415 | 28977 ft | 539 kts | 51° |
| 2026-05-04 02:12 | 33.94583 | -118.02096 | 28984 ft | 537 kts | 50° |
| 2026-05-04 02:12 | 33.98926 | -117.94797 | 28982 ft | 535 kts | 50° |
| 2026-05-04 02:13 | 34.03243 | -117.87485 | 29003 ft | 535 kts | 51° |
| 2026-05-04 02:13 | 34.07554 | -117.80162 | 29004 ft | 536 kts | 51° |
| 2026-05-04 02:14 | 34.12052 | -117.72988 | 29005 ft | 535 kts | 46° |
| 2026-05-04 02:14 | 34.16825 | -117.66097 | 29006 ft | 535 kts | 45° |
| 2026-05-04 02:15 | 34.21619 | -117.59224 | 28999 ft | 532 kts | 46° |
| 2026-05-04 02:15 | 34.26286 | -117.52430 | 28989 ft | 527 kts | 46° |
| 2026-05-04 02:16 | 34.31006 | -117.45499 | 28926 ft | 533 kts | 46° |
| 2026-05-04 02:16 | 34.35691 | -117.38582 | 28914 ft | 536 kts | 46° |
| 2026-05-04 02:17 | 34.40418 | -117.31595 | 28884 ft | 536 kts | 46° |
| 2026-05-04 02:17 | 34.45130 | -117.24623 | 28862 ft | 533 kts | 46° |
| 2026-05-04 02:18 | 34.49813 | -117.17683 | 28855 ft | 531 kts | 46° |
| 2026-05-04 02:18 | 34.54466 | -117.10776 | 28847 ft | 526 kts | 47° |
| 2026-05-04 02:19 | 34.59080 | -117.03913 | 28820 ft | 524 kts | 47° |
| 2026-05-04 02:19 | 34.63669 | -116.97073 | 28802 ft | 521 kts | 47° |
| 2026-05-04 02:20 | 34.68242 | -116.90244 | 28800 ft | 522 kts | 47° |
| 2026-05-04 02:20 | 34.72820 | -116.83397 | 28807 ft | 522 kts | 47° |
| 2026-05-04 02:21 | 34.77407 | -116.76520 | 28806 ft | 524 kts | 47° |
| 2026-05-04 02:21 | 34.82007 | -116.69609 | 28800 ft | 526 kts | 47° |
| 2026-05-04 02:22 | 34.86811 | -116.62950 | 28786 ft | 520 kts | 36° |
| 2026-05-04 02:22 | 34.92433 | -116.57509 | 28801 ft | 516 kts | 31° |
| 2026-05-04 02:23 | 34.98122 | -116.52153 | 28780 ft | 516 kts | 32° |
| 2026-05-04 02:23 | 35.03706 | -116.46744 | 28623 ft | 516 kts | 33° |
| 2026-05-04 02:24 | 35.06527 | -116.43990 | 27829 ft | 518 kts | 33° |
| 2026-05-04 02:24 | 35.09330 | -116.41251 | 27199 ft | 514 kts | 33° |
| 2026-05-04 02:24 | 35.12031 | -116.38395 | 26577 ft | 513 kts | 40° |
| 2026-05-04 02:24 | 35.14500 | -116.35249 | 25966 ft | 511 kts | 44° |
| 2026-05-04 02:25 | 35.16848 | -116.32016 | 25412 ft | 507 kts | 45° |
| 2026-05-04 02:25 | 35.19196 | -116.28812 | 24831 ft | 503 kts | 44° |
| 2026-05-04 02:25 | 35.21577 | -116.25681 | 24225 ft | 500 kts | 43° |
| 2026-05-04 02:25 | 35.23964 | -116.22590 | 23591 ft | 499 kts | 44° |
| 2026-05-04 02:26 | 35.26292 | -116.19437 | 22897 ft | 498 kts | 46° |
| 2026-05-04 02:26 | 35.28541 | -116.16307 | 22255 ft | 494 kts | 46° |
| 2026-05-04 02:26 | 35.30806 | -116.13165 | 21662 ft | 488 kts | 46° |
| 2026-05-04 02:26 | 35.33045 | -116.10082 | 21085 ft | 482 kts | 46° |
| 2026-05-04 02:27 | 35.35265 | -116.07033 | 20513 ft | 476 kts | 47° |
| 2026-05-04 02:27 | 35.37456 | -116.04025 | 19941 ft | 470 kts | 47° |
| 2026-05-04 02:27 | 35.39622 | -116.01050 | 19385 ft | 465 kts | 47° |
| 2026-05-04 02:27 | 35.41761 | -115.98107 | 18821 ft | 459 kts | 47° |
| 2026-05-04 02:28 | 35.43867 | -115.95206 | 18269 ft | 452 kts | 48° |
| 2026-05-04 02:28 | 35.45944 | -115.92342 | 17643 ft | 446 kts | 49° |
| 2026-05-04 02:28 | 35.47975 | -115.89540 | 17231 ft | 433 kts | 49° |
| 2026-05-04 02:28 | 35.49939 | -115.86829 | 16822 ft | 416 kts | 49° |
| 2026-05-04 02:29 | 35.51817 | -115.84230 | 16692 ft | 400 kts | 49° |
| 2026-05-04 02:29 | 35.53640 | -115.81707 | 16510 ft | 388 kts | 49° |
| 2026-05-04 02:29 | 35.55405 | -115.79264 | 16349 ft | 377 kts | 50° |
| 2026-05-04 02:29 | 35.57119 | -115.76888 | 16190 ft | 366 kts | 50° |
| 2026-05-04 02:30 | 35.58763 | -115.74610 | 16045 ft | 356 kts | 50° |
| 2026-05-04 02:30 | 35.60397 | -115.72369 | 15873 ft | 348 kts | 50° |
| 2026-05-04 02:30 | 35.62012 | -115.70191 | 15704 ft | 341 kts | 49° |
| 2026-05-04 02:31 | 35.65477 | -115.65520 | 15334 ft | 331 kts | 50° |
| 2026-05-04 02:31 | 35.67027 | -115.63432 | 15135 ft | 330 kts | 50° |
| 2026-05-04 02:31 | 35.68578 | -115.61346 | 15033 ft | 333 kts | 50° |
| 2026-05-04 02:31 | 35.70149 | -115.59215 | 14861 ft | 338 kts | 50° |
| 2026-05-04 02:32 | 35.71731 | -115.57069 | 14690 ft | 338 kts | 50° |
| 2026-05-04 02:32 | 35.72807 | -115.55698 | 14567 ft | 337 kts | 43° |
| 2026-05-04 02:32 | 35.74742 | -115.54081 | 14410 ft | 336 kts | 31° |
| 2026-05-04 02:32 | 35.76782 | -115.52691 | 14235 ft | 334 kts | 30° |
| 2026-05-04 02:33 | 35.78820 | -115.51315 | 14063 ft | 333 kts | 30° |
| 2026-05-04 02:33 | 35.80841 | -115.49936 | 13899 ft | 332 kts | 31° |
| 2026-05-04 02:33 | 35.82851 | -115.48547 | 13734 ft | 331 kts | 31° |
| 2026-05-04 02:33 | 35.84852 | -115.47152 | 13553 ft | 330 kts | 31° |
| 2026-05-04 02:34 | 35.86848 | -115.45752 | 13357 ft | 329 kts | 31° |
| 2026-05-04 02:34 | 35.88836 | -115.44356 | 13195 ft | 329 kts | 31° |
| 2026-05-04 02:34 | 35.90826 | -115.42957 | 13004 ft | 329 kts | 31° |
| 2026-05-04 02:34 | 35.92837 | -115.41551 | 12605 ft | 336 kts | 31° |
| 2026-05-04 02:35 | 35.94885 | -115.40123 | 12219 ft | 337 kts | 30° |
| 2026-05-04 02:35 | 35.96909 | -115.38712 | 11817 ft | 330 kts | 30° |
| 2026-05-04 02:35 | 35.98885 | -115.37320 | 11445 ft | 325 kts | 34° |
| 2026-05-04 02:35 | 36.00502 | -115.35428 | 11083 ft | 321 kts | 60° |
| 2026-05-04 02:36 | 36.01321 | -115.32976 | 10863 ft | 308 kts | 82° |
| 2026-05-04 02:36 | 36.01449 | -115.30381 | 10628 ft | 301 kts | 96° |
| 2026-05-04 02:36 | 36.01324 | -115.27814 | 10416 ft | 299 kts | 98° |
| 2026-05-04 02:36 | 36.01172 | -115.25253 | 10242 ft | 297 kts | 99° |
| 2026-05-04 02:37 | 36.01024 | -115.22726 | 10035 ft | 293 kts | 98° |
| 2026-05-04 02:37 | 36.00887 | -115.20233 | 9814 ft | 289 kts | 98° |
| 2026-05-04 02:37 | 36.00759 | -115.17782 | 9599 ft | 281 kts | 98° |
| 2026-05-04 02:37 | 36.00638 | -115.15389 | 9405 ft | 277 kts | 98° |
| 2026-05-04 02:38 | 36.00518 | -115.13031 | 9200 ft | 272 kts | 98° |
| 2026-05-04 02:38 | 36.00404 | -115.10742 | 8983 ft | 262 kts | 98° |
| 2026-05-04 02:38 | 36.00292 | -115.08534 | 8742 ft | 254 kts | 98° |
| 2026-05-04 02:38 | 36.00181 | -115.06376 | 8533 ft | 250 kts | 99° |
| 2026-05-04 02:39 | 36.00071 | -115.04240 | 8312 ft | 249 kts | 99° |
| 2026-05-04 02:39 | 35.99960 | -115.02103 | 8112 ft | 251 kts | 98° |
| 2026-05-04 02:39 | 35.99888 | -114.99939 | 7777 ft | 253 kts | 97° |
| 2026-05-04 02:39 | 35.99879 | -114.97770 | 7467 ft | 250 kts | 96° |
| 2026-05-04 02:40 | 35.99876 | -114.95654 | 7166 ft | 242 kts | 96° |
| 2026-05-04 02:40 | 35.99943 | -114.93621 | 6849 ft | 236 kts | 84° |
| 2026-05-04 02:40 | 36.00717 | -114.91839 | 6534 ft | 243 kts | 48° |
| 2026-05-04 02:40 | 36.02065 | -114.90608 | 6251 ft | 246 kts | 30° |
| 2026-05-04 02:41 | 36.03731 | -114.90099 | 5880 ft | 244 kts | 353° |
| 2026-05-04 02:41 | 36.05317 | -114.90642 | 5613 ft | 234 kts | 328° |
| 2026-05-04 02:41 | 36.06645 | -114.91717 | 5202 ft | 231 kts | 304° |
| 2026-05-04 02:41 | 36.07222 | -114.93414 | 4972 ft | 207 kts | 267° |
| 2026-05-04 02:42 | 36.07335 | -114.95175 | 4711 ft | 205 kts | 266° |
| 2026-05-04 02:42 | 36.07390 | -114.96898 | 4446 ft | 196 kts | 263° |
| 2026-05-04 02:42 | 36.07395 | -114.98537 | 4222 ft | 185 kts | 261° |
| 2026-05-04 02:42 | 36.07390 | -115.00090 | 3970 ft | 176 kts | 261° |
| 2026-05-04 02:43 | 36.07386 | -115.01547 | 3779 ft | 163 kts | 265° |
| 2026-05-04 02:43 | 36.07383 | -115.02896 | 3579 ft | 150 kts | 265° |
| 2026-05-04 02:43 | 36.07380 | -115.04146 | 3411 ft | 143 kts | 264° |
| 2026-05-04 02:43 | 36.07377 | -115.05348 | 3233 ft | 138 kts | 263° |
| 2026-05-04 02:44 | 36.07374 | -115.06554 | 3087 ft | 144 kts | 263° |
| 2026-05-04 02:44 | 36.07371 | -115.07819 | 2864 ft | 147 kts | 263° |
| 2026-05-04 02:44 | 36.07395 | -115.09075 | 2690 ft | 147 kts | 265° |
| 2026-05-04 02:44 | 36.07373 | -115.10327 | 2507 ft | 140 kts | 260° |
| 2026-05-04 02:45 | 36.07358 | -115.11492 | 2308 ft | 136 kts | 264° |
| 2026-05-04 02:45 | 36.07364 | -115.12711 | 2164 ft | 147 kts | 266° |
| 2026-05-04 02:45 | 36.07363 | -115.13902 | 2123 ft | 121 kts | 270° |
| 2026-05-04 02:45 | 36.07363 | -115.14685 | 2124 ft | 58 kts | 269° |
| 2026-05-04 02:46 | 36.07366 | -115.15104 | 2118 ft | 35 kts | 274° |
| 2026-05-04 02:46 | 36.07401 | -115.15348 | 2121 ft | 23 kts | 288° |
| 2026-05-04 02:46 | 36.07460 | -115.15490 | 2121 ft | 13 kts | 301° |
| 2026-05-04 02:46 | 36.07489 | -115.15548 | 2121 ft | 8 kts | 302° |
| 2026-05-04 02:47 | 36.07525 | -115.15606 | 2122 ft | 9 kts | 313° |
| 2026-05-04 02:47 | 36.07567 | -115.15655 | 2124 ft | 8 kts | 316° |
| 2026-05-04 02:47 | 36.07608 | -115.15708 | 2123 ft | 10 kts | 313° |
| 2026-05-04 02:47 | 36.07678 | -115.15792 | 2122 ft | 14 kts | 322° |
| 2026-05-04 02:48 | 36.07766 | -115.15825 | 2123 ft | 13 kts | 359° |
| 2026-05-04 02:48 | 36.07854 | -115.15816 | 2125 ft | 13 kts | 28° |
| 2026-05-04 02:48 | 36.07876 | -115.15718 | 2124 ft | 12 kts | 89° |
| 2026-05-04 02:48 | 36.07877 | -115.15613 | 2125 ft | 12 kts | 90° |
| 2026-05-04 02:49 | 36.07877 | -115.15511 | 2126 ft | 12 kts | 90° |
| 2026-05-04 02:49 | 36.07877 | -115.15412 | 2128 ft | 11 kts | 89° |
| 2026-05-04 02:49 | 36.07877 | -115.15315 | 2127 ft | 11 kts | 91° |
| 2026-05-04 02:49 | 36.07877 | -115.15218 | 2129 ft | 12 kts | 89° |
| 2026-05-04 02:50 | 36.07876 | -115.15114 | 2125 ft | 13 kts | 92° |
| 2026-05-04 02:50 | 36.07870 | -115.14999 | 2124 ft | 13 kts | 95° |
| 2026-05-04 02:50 | 36.07863 | -115.14889 | 2123 ft | 13 kts | 95° |
| 2026-05-04 02:50 | 36.07855 | -115.14776 | 2120 ft | 14 kts | 95° |
| 2026-05-04 02:51 | 36.07847 | -115.14644 | 2117 ft | 16 kts | 94° |
| 2026-05-04 02:51 | 36.07841 | -115.14538 | 2117 ft | 9 kts | 87° |
| 2026-05-04 02:51 | 36.07878 | -115.14487 | 2117 ft | 9 kts | 11° |
| 2026-05-04 02:51 | 36.07950 | -115.14484 | 2115 ft | 12 kts | 359° |
| 2026-05-04 02:52 | 36.07999 | -115.14497 | 2114 ft | 5 kts | 306° |
| 2026-05-04 02:52 | 36.08007 | -115.14536 | 2115 ft | 5 kts | 278° |
| 2026-05-04 02:52 | 36.08011 | -115.14560 | 2115 ft | 1 kts | 279° |
| 2026-05-04 02:52 | 36.08011 | -115.14563 | 2115 ft | 0 kts | 279° |